Time,TemperatureF,DewpointF,PressureIn,WindDirection,WindDirectionDegrees,WindSpeedMPH,WindSpeedGustMPH,Humidity,HourlyPrecipIn,Conditions,Clouds,dailyrainin,SoftwareType,DateUTC
2013-03-15 02:22:00,48.0,43.0,30.29,WSW,256,0.0,0.0,82,0.00,,,0.00,,2013-03-15 07:22:00,
2013-03-15 02:32:00,47.0,42.0,30.30,WSW,256,0.0,0.0,83,0.00,,,0.00,,2013-03-15 07:32:00,
2013-03-15 02:42:00,47.0,42.0,30.30,WSW,256,0.0,0.0,83,0.00,,,0.00,,2013-03-15 07:42:00,
2013-03-15 02:52:00,46.0,42.0,30.29,WSW,256,0.0,0.0,85,0.00,,,0.00,,2013-03-15 07:52:00,
2013-03-15 03:02:00,46.0,42.0,30.29,WSW,256,0.0,0.0,85,0.00,,,0.00,,2013-03-15 08:02:00,
2013-03-15 03:12:00,46.0,42.0,30.29,WSW,256,0.0,0.0,85,0.00,,,0.00,,2013-03-15 08:12:00,
2013-03-15 03:22:00,46.0,42.0,30.29,WSW,256,0.0,0.0,85,0.00,,,0.00,,2013-03-15 08:22:00,
2013-03-15 03:32:00,44.0,42.0,30.29,WSW,256,0.0,0.0,91,0.00,,,0.00,,2013-03-15 08:32:00,
2013-03-15 03:42:00,44.0,42.0,30.29,WSW,256,0.0,0.0,91,0.00,,,0.00,,2013-03-15 08:42:00,
2013-03-15 03:52:00,44.0,42.0,30.29,WSW,256,0.0,0.0,92,0.00,,,0.00,,2013-03-15 08:52:00,
2013-03-15 04:02:00,43.0,41.0,30.28,WSW,256,0.0,0.0,93,0.00,,,0.00,,2013-03-15 09:02:00,
2013-03-15 04:12:00,43.0,41.0,30.28,WSW,256,0.0,0.0,93,0.00,,,0.00,,2013-03-15 09:12:00,
2013-03-15 04:22:00,43.0,41.0,30.27,WSW,256,0.0,0.0,93,0.00,,,0.00,,2013-03-15 09:22:00,
2013-03-15 04:33:00,43.0,41.0,30.27,WSW,255,0.0,0.0,94,0.00,,,0.00,,2013-03-15 09:33:00,
2013-03-15 04:43:00,43.0,41.0,30.27,WSW,255,0.0,0.0,94,0.00,,,0.00,,2013-03-15 09:43:00,
2013-03-15 04:52:00,43.0,41.0,30.27,WSW,255,0.0,0.0,94,0.00,,,0.00,,2013-03-15 09:52:00,
2013-03-15 05:03:00,43.0,42.0,30.27,WSW,256,0.0,0.0,95,0.00,,,0.00,,2013-03-15 10:03:00,
2013-03-15 05:12:00,43.0,42.0,30.27,WSW,256,0.0,0.0,95,0.00,,,0.00,,2013-03-15 10:12:00,
2013-03-15 05:23:00,42.0,41.0,30.27,WSW,256,0.0,0.0,95,0.00,,,0.00,,2013-03-15 10:23:00,
2013-03-15 05:33:00,42.0,41.0,30.27,WSW,256,0.0,0.0,96,0.00,,,0.00,,2013-03-15 10:33:00,
2013-03-15 05:42:00,42.0,41.0,30.27,WSW,256,0.0,0.0,96,0.00,,,0.00,,2013-03-15 10:42:00,
2013-03-15 05:52:00,43.0,42.0,30.27,WSW,256,0.0,0.0,97,0.00,,,0.00,,2013-03-15 10:52:00,
2013-03-15 06:03:00,43.0,42.0,30.28,WSW,256,0.0,0.0,96,0.00,,,0.00,,2013-03-15 11:03:00,
2013-03-15 06:12:00,43.0,42.0,30.28,WSW,256,0.0,0.0,96,0.00,,,0.00,,2013-03-15 11:12:00,
2013-03-15 06:22:00,42.0,41.0,30.28,WSW,256,0.0,0.0,96,0.00,,,0.00,,2013-03-15 11:22:00,
2013-03-15 06:32:00,42.0,41.0,30.28,WSW,255,0.0,0.0,97,0.00,,,0.00,,2013-03-15 11:32:00,
2013-03-15 06:42:00,42.0,41.0,30.28,WSW,255,0.0,0.0,97,0.00,,,0.00,,2013-03-15 11:42:00,
2013-03-15 06:52:00,41.0,40.0,30.28,WSW,256,0.0,0.0,96,0.00,,,0.00,,2013-03-15 11:52:00,
2013-03-15 07:02:00,41.0,40.0,30.29,WSW,256,0.0,0.0,97,0.00,,,0.00,,2013-03-15 12:02:00,
2013-03-15 07:12:00,41.0,40.0,30.29,WSW,256,0.0,0.0,97,0.00,,,0.00,,2013-03-15 12:12:00,
2013-03-15 07:23:00,41.0,40.0,30.29,WSW,256,0.0,0.0,97,0.00,,,0.00,,2013-03-15 12:23:00,
2013-03-15 07:32:00,41.0,40.0,30.29,WSW,256,0.0,0.0,97,0.00,,,0.00,,2013-03-15 12:32:00,
2013-03-15 07:42:00,41.0,40.0,30.29,WSW,256,0.0,0.0,97,0.00,,,0.00,,2013-03-15 12:42:00,
2013-03-15 07:52:00,40.0,39.0,30.29,WSW,256,0.0,0.0,97,0.00,,,0.00,,2013-03-15 12:52:00,
2013-03-15 08:02:00,41.0,40.0,30.29,WSW,256,0.0,0.0,98,0.00,,,0.00,,2013-03-15 13:02:00,
2013-03-15 08:12:00,41.0,40.0,30.29,WSW,256,0.0,0.0,98,0.00,,,0.00,,2013-03-15 13:12:00,
2013-03-15 08:22:00,42.0,41.0,30.29,South,181,0.0,1.0,98,0.00,,,0.00,,2013-03-15 13:22:00,
2013-03-15 08:32:00,44.0,43.0,30.30,South,181,0.0,0.0,98,0.00,,,0.00,,2013-03-15 13:32:00,
2013-03-15 08:42:00,44.0,43.0,30.30,South,181,0.0,0.0,98,0.00,,,0.00,,2013-03-15 13:42:00,
2013-03-15 08:52:00,47.0,46.0,30.30,South,181,0.0,0.0,97,0.00,,,0.00,,2013-03-15 13:52:00,
2013-03-15 09:02:00,49.0,47.0,30.30,South,181,0.0,0.0,94,0.00,,,0.00,,2013-03-15 14:02:00,
2013-03-15 09:12:00,49.0,47.0,30.30,South,181,0.0,0.0,94,0.00,,,0.00,,2013-03-15 14:12:00,
2013-03-15 09:22:00,52.0,49.0,30.31,SSE,155,0.0,1.0,91,0.00,,,0.00,,2013-03-15 14:22:00,
2013-03-15 09:32:00,54.0,49.0,30.31,WSW,245,0.0,3.0,84,0.00,,,0.00,,2013-03-15 14:32:00,
2013-03-15 09:42:00,54.0,49.0,30.31,WSW,245,0.0,3.0,84,0.00,,,0.00,,2013-03-15 14:42:00,
2013-03-15 09:52:00,56.0,51.0,30.31,West,262,0.0,1.0,83,0.00,,,0.00,,2013-03-15 14:52:00,
2013-03-15 10:02:00,58.0,51.0,30.31,SW,231,1.0,4.0,78,0.00,,,0.00,,2013-03-15 15:02:00,
2013-03-15 10:13:00,58.0,51.0,30.31,SW,231,1.0,4.0,78,0.00,,,0.00,,2013-03-15 15:13:00,
2013-03-15 10:22:00,61.0,53.0,30.31,NW,326,1.0,2.0,74,0.00,,,0.00,,2013-03-15 15:22:00,
2013-03-15 10:33:00,62.0,50.0,30.31,South,190,1.0,2.0,65,0.00,,,0.00,,2013-03-15 15:33:00,
2013-03-15 10:42:00,62.0,50.0,30.31,South,190,1.0,2.0,65,0.00,,,0.00,,2013-03-15 15:42:00,
2013-03-15 10:53:00,64.0,48.0,30.31,SE,146,0.0,4.0,56,0.00,,,0.00,,2013-03-15 15:53:00,
2013-03-15 11:02:00,65.0,47.0,30.30,WNW,294,0.0,6.0,53,0.00,,,0.00,,2013-03-15 16:02:00,
2013-03-15 11:12:00,65.0,47.0,30.30,WNW,294,0.0,6.0,53,0.00,,,0.00,,2013-03-15 16:12:00,
2013-03-15 11:22:00,66.0,42.0,30.29,West,266,2.0,4.0,41,0.00,,,0.00,,2013-03-15 16:22:00,
2013-03-15 11:32:00,67.0,41.0,30.29,SW,232,2.0,5.0,38,0.00,,,0.00,,2013-03-15 16:32:00,
2013-03-15 11:42:00,67.0,41.0,30.29,SW,232,2.0,5.0,38,0.00,,,0.00,,2013-03-15 16:42:00,
2013-03-15 11:52:00,67.0,41.0,30.29,SW,232,2.0,5.0,38,0.00,,,0.00,,2013-03-15 16:52:00,
2013-03-15 12:02:00,68.0,40.0,30.29,NW,306,1.0,4.0,36,0.00,,,0.00,,2013-03-15 17:02:00,
2013-03-15 12:12:00,68.0,40.0,30.29,NW,306,1.0,4.0,36,0.00,,,0.00,,2013-03-15 17:12:00,
2013-03-15 12:22:00,69.0,39.0,30.29,WSW,250,2.0,8.0,33,0.00,,,0.00,,2013-03-15 17:22:00,
2013-03-15 12:32:00,71.0,43.0,30.28,NE,43,1.0,4.0,36,0.00,,,0.00,,2013-03-15 17:32:00,
2013-03-15 12:42:00,71.0,43.0,30.28,NE,43,1.0,4.0,36,0.00,,,0.00,,2013-03-15 17:42:00,
2013-03-15 12:52:00,71.0,44.0,30.27,SSE,167,2.0,5.0,38,0.00,,,0.00,,2013-03-15 17:52:00,
2013-03-15 13:02:00,71.0,44.0,30.26,SSW,210,3.0,9.0,38,0.00,,,0.00,,2013-03-15 18:02:00,
2013-03-15 13:12:00,71.0,44.0,30.26,SSW,210,3.0,9.0,38,0.00,,,0.00,,2013-03-15 18:12:00,
2013-03-15 13:22:00,72.0,43.0,30.25,WNW,286,2.0,6.0,35,0.00,,,0.00,,2013-03-15 18:22:00,
2013-03-15 13:32:00,72.0,41.0,30.24,SE,131,3.0,7.0,33,0.00,,,0.00,,2013-03-15 18:32:00,
2013-03-15 13:42:00,72.0,41.0,30.24,SE,131,3.0,7.0,33,0.00,,,0.00,,2013-03-15 18:42:00,
2013-03-15 13:52:00,73.0,44.0,30.23,WNW,293,1.0,6.0,36,0.00,,,0.00,,2013-03-15 18:52:00,
2013-03-15 14:02:00,74.0,43.0,30.22,SW,214,2.0,7.0,33,0.00,,,0.00,,2013-03-15 19:02:00,
2013-03-15 14:12:00,74.0,43.0,30.22,SW,214,2.0,7.0,33,0.00,,,0.00,,2013-03-15 19:12:00,
2013-03-15 14:22:00,74.0,41.0,30.21,SSE,153,2.0,9.0,30,0.00,,,0.00,,2013-03-15 19:22:00,
2013-03-15 14:32:00,75.0,42.0,30.19,SE,134,3.0,7.0,31,0.00,,,0.00,,2013-03-15 19:32:00,
2013-03-15 14:42:00,75.0,42.0,30.19,SE,134,3.0,7.0,31,0.00,,,0.00,,2013-03-15 19:42:00,
2013-03-15 14:52:00,76.0,43.0,30.18,South,191,2.0,10.0,31,0.00,,,0.00,,2013-03-15 19:52:00,
2013-03-15 15:02:00,76.0,43.0,30.18,South,191,2.0,10.0,31,0.00,,,0.00,,2013-03-15 20:02:00,
2013-03-15 15:12:00,76.0,43.0,30.18,South,191,2.0,10.0,31,0.00,,,0.00,,2013-03-15 20:12:00,
2013-03-15 15:22:00,76.0,42.0,30.17,SE,138,3.0,6.0,30,0.00,,,0.00,,2013-03-15 20:22:00,
2013-03-15 15:32:00,77.0,44.0,30.15,SSE,159,1.0,5.0,31,0.00,,,0.00,,2013-03-15 20:32:00,
2013-03-15 15:42:00,77.0,44.0,30.15,SSE,159,1.0,5.0,31,0.00,,,0.00,,2013-03-15 20:42:00,
2013-03-15 15:52:00,77.0,45.0,30.15,SE,145,3.0,10.0,32,0.00,,,0.00,,2013-03-15 20:52:00,
2013-03-15 16:02:00,77.0,45.0,30.14,SW,233,2.0,5.0,32,0.00,,,0.00,,2013-03-15 21:02:00,
2013-03-15 16:12:00,77.0,45.0,30.14,SW,233,2.0,5.0,32,0.00,,,0.00,,2013-03-15 21:12:00,
2013-03-15 16:22:00,76.0,42.0,30.14,ESE,109,2.0,8.0,30,0.00,,,0.00,,2013-03-15 21:22:00,
2013-03-15 16:33:00,76.0,42.0,30.14,ESE,109,2.0,8.0,30,0.00,,,0.00,,2013-03-15 21:33:00,
2013-03-15 16:43:00,76.0,42.0,30.14,ESE,109,2.0,8.0,30,0.00,,,0.00,,2013-03-15 21:43:00,
2013-03-15 16:52:00,76.0,42.0,30.14,SW,224,3.0,10.0,30,0.00,,,0.00,,2013-03-15 21:52:00,
2013-03-15 17:03:00,76.0,41.0,30.13,ENE,73,3.0,9.0,29,0.00,,,0.00,,2013-03-15 22:03:00,
2013-03-15 17:13:00,76.0,41.0,30.13,ENE,73,3.0,9.0,29,0.00,,,0.00,,2013-03-15 22:13:00,
2013-03-15 17:22:00,75.0,42.0,30.13,West,273,2.0,8.0,31,0.00,,,0.00,,2013-03-15 22:22:00,
2013-03-15 17:32:00,74.0,43.0,30.13,SW,222,3.0,9.0,33,0.00,,,0.00,,2013-03-15 22:32:00,
2013-03-15 17:42:00,74.0,43.0,30.13,SW,222,3.0,9.0,33,0.00,,,0.00,,2013-03-15 22:42:00,
2013-03-15 17:52:00,73.0,43.0,30.13,West,277,1.0,7.0,34,0.00,,,0.00,,2013-03-15 22:52:00,
2013-03-15 18:02:00,73.0,41.0,30.14,West,266,1.0,7.0,32,0.00,,,0.00,,2013-03-15 23:02:00,
2013-03-15 18:12:00,73.0,41.0,30.14,West,266,1.0,7.0,32,0.00,,,0.00,,2013-03-15 23:12:00,
2013-03-15 18:22:00,72.0,41.0,30.14,West,271,2.0,6.0,33,0.00,,,0.00,,2013-03-15 23:22:00,
2013-03-15 18:32:00,71.0,43.0,30.14,SW,226,0.0,3.0,36,0.00,,,0.00,,2013-03-15 23:32:00,
2013-03-15 18:42:00,71.0,43.0,30.14,SW,226,0.0,3.0,36,0.00,,,0.00,,2013-03-15 23:42:00,
2013-03-15 18:53:00,70.0,44.0,30.14,WSW,252,0.0,5.0,39,0.00,,,0.00,,2013-03-15 23:53:00,
2013-03-15 19:02:00,70.0,44.0,30.14,WSW,252,0.0,5.0,39,0.00,,,0.00,,2013-03-16 00:02:00,
2013-03-15 19:12:00,70.0,44.0,30.14,WSW,252,0.0,5.0,39,0.00,,,0.00,,2013-03-16 00:12:00,
2013-03-15 19:22:00,69.0,44.0,30.15,WSW,244,1.0,4.0,41,0.00,,,0.00,,2013-03-16 00:22:00,
2013-03-15 19:32:00,68.0,46.0,30.15,SW,231,0.0,3.0,45,0.00,,,0.00,,2013-03-16 00:32:00,
2013-03-15 19:42:00,68.0,46.0,30.15,SW,231,0.0,3.0,45,0.00,,,0.00,,2013-03-16 00:42:00,
2013-03-15 19:52:00,67.0,47.0,30.15,WSW,246,1.0,3.0,48,0.00,,,0.00,,2013-03-16 00:52:00,
2013-03-15 20:02:00,65.0,46.0,30.15,SW,220,0.0,1.0,51,0.00,,,0.00,,2013-03-16 01:02:00,
2013-03-15 20:12:00,65.0,46.0,30.15,SW,220,0.0,1.0,51,0.00,,,0.00,,2013-03-16 01:12:00,
2013-03-15 20:21:00,64.0,47.0,30.15,SW,219,0.0,3.0,53,0.00,,,0.00,,2013-03-16 01:21:00,
2013-03-15 20:32:00,63.0,47.0,30.16,SSW,204,0.0,2.0,55,0.00,,,0.00,,2013-03-16 01:32:00,
2013-03-15 20:42:00,63.0,47.0,30.16,SSW,204,0.0,2.0,55,0.00,,,0.00,,2013-03-16 01:42:00,
2013-03-15 20:52:00,62.0,47.0,30.16,West,263,0.0,2.0,57,0.00,,,0.00,,2013-03-16 01:52:00,
2013-03-15 21:02:00,61.0,47.0,30.16,South,177,0.0,1.0,59,0.00,,,0.00,,2013-03-16 02:02:00,
2013-03-15 21:12:00,61.0,47.0,30.16,South,177,0.0,1.0,59,0.00,,,0.00,,2013-03-16 02:12:00,
2013-03-15 21:23:00,61.0,47.0,30.16,South,177,0.0,1.0,59,0.00,,,0.00,,2013-03-16 02:23:00,
2013-03-15 21:32:00,60.0,46.0,30.15,WSW,250,0.0,1.0,60,0.00,,,0.00,,2013-03-16 02:32:00,
2013-03-15 21:42:00,60.0,46.0,30.15,WSW,250,0.0,1.0,60,0.00,,,0.00,,2013-03-16 02:42:00,
2013-03-15 21:52:00,60.0,47.0,30.16,SW,219,0.0,1.0,62,0.00,,,0.00,,2013-03-16 02:52:00,
2013-03-15 22:02:00,59.0,47.0,30.16,SW,235,0.0,3.0,65,0.00,,,0.00,,2013-03-16 03:02:00,
2013-03-15 22:12:00,59.0,47.0,30.16,SW,235,0.0,3.0,65,0.00,,,0.00,,2013-03-16 03:12:00,
2013-03-15 22:22:00,59.0,48.0,30.16,SW,219,0.0,2.0,68,0.00,,,0.00,,2013-03-16 03:22:00,
2013-03-15 22:32:00,58.0,49.0,30.16,SSW,207,0.0,1.0,72,0.00,,,0.00,,2013-03-16 03:32:00,
2013-03-15 22:43:00,58.0,49.0,30.16,SSW,207,0.0,1.0,72,0.00,,,0.00,,2013-03-16 03:43:00,
2013-03-15 22:53:00,57.0,50.0,30.16,SSW,205,0.0,0.0,76,0.00,,,0.00,,2013-03-16 03:53:00,
2013-03-15 23:02:00,56.0,49.0,30.16,SSW,205,0.0,0.0,78,0.00,,,0.00,,2013-03-16 04:02:00,
2013-03-15 23:12:00,56.0,49.0,30.16,SSW,205,0.0,0.0,78,0.00,,,0.00,,2013-03-16 04:12:00,
2013-03-15 23:23:00,56.0,50.0,30.16,SSW,210,0.0,0.0,81,0.00,,,0.00,,2013-03-16 04:23:00,
2013-03-15 23:32:00,55.0,50.0,30.16,SW,219,0.0,1.0,84,0.00,,,0.00,,2013-03-16 04:32:00,
2013-03-15 23:43:00,55.0,50.0,30.16,SW,219,0.0,1.0,84,0.00,,,0.00,,2013-03-16 04:43:00,
2013-03-15 23:53:00,55.0,50.0,30.16,SW,219,0.0,1.0,84,0.00,,,0.00,,2013-03-16 04:53:00,